Time;durP1;ratioP1;P1;durP2;ratioP2;P2;SDS_P1;SDS_P2;PMS_P1;PMS_P2;Temp;Humidity;BMP_temperature;BMP_pressure;BME280_temperature;BME280_humidity;BME280_pressure;Samples;Min_cycle;Max_cycle;Signal;HPM_P1;HPM_P2
2023/12/16 00:00:34;;;;;;;11.90;5.73;;;9.60;1.00;;;;;;5093291;28;20168;-70
2023/12/16 00:03:00;;;;;;;17.83;6.63;;;9.60;1.00;;;;;;5093034;28;20584;-69
2023/12/16 00:05:25;;;;;;;18.03;6.57;;;9.60;1.00;;;;;;5092807;28;20167;-70
2023/12/16 00:07:51;;;;;;;17.67;6.77;;;9.50;1.00;;;;;;5093057;28;20168;-67
2023/12/16 00:10:16;;;;;;;14.17;6.20;;;9.50;1.00;;;;;;5093127;28;20674;-68
2023/12/16 00:12:42;;;;;;;15.40;6.10;;;9.50;1.00;;;;;;5093139;28;20654;-69
2023/12/16 00:15:11;;;;;;;14.20;6.23;;;9.50;1.00;;;;;;5093108;28;20170;-70
2023/12/16 00:17:36;;;;;;;13.50;6.13;;;9.50;1.00;;;;;;5093064;28;20180;-70
2023/12/16 00:20:03;;;;;;;17.20;5.97;;;9.50;1.00;;;;;;5092611;28;20194;-69
2023/12/16 00:22:29;;;;;;;15.87;6.43;;;9.50;1.00;;;;;;5074925;28;20582;-69
2023/12/16 00:24:55;;;;;;;18.63;5.90;;;9.50;1.00;;;;;;5093025;28;20291;-70
2023/12/16 00:27:20;;;;;;;13.13;5.77;;;9.50;1.00;;;;;;5092660;28;20216;-69
2023/12/16 00:29:46;;;;;;;12.60;6.17;;;9.50;1.00;;;;;;5093036;28;20204;-70
2023/12/16 00:32:12;;;;;;;17.30;6.40;;;9.50;1.00;;;;;;5093012;28;20168;-70
2023/12/16 00:34:38;;;;;;;12.77;5.60;;;9.40;1.00;;;;;;5092767;28;20630;-69
2023/12/16 00:37:06;;;;;;;11.67;6.23;;;9.40;1.00;;;;;;5092912;28;20164;-69
2023/12/16 00:39:32;;;;;;;14.00;5.97;;;9.30;1.00;;;;;;5093117;28;20172;-69
2023/12/16 00:41:58;;;;;;;13.57;5.93;;;9.40;1.00;;;;;;5093062;28;20164;-70
2023/12/16 00:44:24;;;;;;;12.03;6.07;;;9.50;1.00;;;;;;5092732;28;20641;-69
2023/12/16 00:46:50;;;;;;;13.30;6.03;;;9.40;1.00;;;;;;5093059;28;20165;-69
2023/12/16 00:49:15;;;;;;;10.57;5.37;;;9.40;1.00;;;;;;5092538;28;20677;-69
2023/12/16 00:51:41;;;;;;;12.47;6.00;;;9.30;1.00;;;;;;5092627;28;20172;-69
2023/12/16 00:54:06;;;;;;;13.17;5.77;;;9.30;1.00;;;;;;5092744;28;20179;-69
2023/12/16 00:56:32;;;;;;;14.73;6.40;;;9.30;1.00;;;;;;5092853;28;20643;-69
2023/12/16 00:58:57;;;;;;;13.87;6.20;;;9.30;1.00;;;;;;5092679;28;20626;-69
2023/12/16 01:01:23;;;;;;;13.63;6.40;;;9.30;1.00;;;;;;5092874;28;20631;-69
2023/12/16 01:03:49;;;;;;;11.53;6.03;;;9.30;1.00;;;;;;5075050;28;20172;-69
2023/12/16 01:06:14;;;;;;;14.50;6.63;;;9.30;1.00;;;;;;5096255;28;20176;-69
2023/12/16 01:08:42;;;;;;;12.87;6.53;;;9.30;1.00;;;;;;5096275;28;20671;-69
2023/12/16 01:11:07;;;;;;;13.67;6.40;;;9.30;1.00;;;;;;5096453;28;20180;-69
2023/12/16 01:13:33;;;;;;;16.37;7.37;;;9.30;1.00;;;;;;5096175;28;20180;-69
2023/12/16 01:15:58;;;;;;;10.20;6.33;;;9.30;1.00;;;;;;5078077;28;20176;-69
2023/12/16 01:18:24;;;;;;;15.20;7.00;;;9.30;1.00;;;;;;5095565;28;20192;-69
2023/12/16 01:20:51;;;;;;;15.90;7.17;;;9.30;1.00;;;;;;5077978;28;20231;-70
2023/12/16 01:23:16;;;;;;;15.87;6.43;;;9.30;1.00;;;;;;5095977;28;20175;-69
2023/12/16 01:25:42;;;;;;;11.80;6.10;;;9.40;1.00;;;;;;5095963;28;20175;-69
2023/12/16 01:28:07;;;;;;;19.23;6.40;;;9.30;1.00;;;;;;5095751;28;20304;-69
2023/12/16 01:30:33;;;;;;;16.50;7.27;;;9.40;1.00;;;;;;5096026;28;20203;-70
2023/12/16 01:32:58;;;;;;;17.50;7.10;;;9.40;1.00;;;;;;5095516;28;20199;-69
2023/12/16 01:35:24;;;;;;;17.00;6.83;;;9.40;1.00;;;;;;5095649;28;20272;-70
2023/12/16 01:37:49;;;;;;;17.00;6.73;;;9.30;1.00;;;;;;5095775;28;20179;-70
2023/12/16 01:40:15;;;;;;;16.93;7.23;;;9.30;1.00;;;;;;5095785;28;20176;-70
2023/12/16 01:42:40;;;;;;;14.17;5.90;;;9.20;1.00;;;;;;5078014;28;20271;-70
2023/12/16 01:45:07;;;;;;;15.23;7.23;;;9.30;1.00;;;;;;5095809;28;20207;-69
2023/12/16 01:47:33;;;;;;;14.83;6.43;;;9.30;1.00;;;;;;5077122;28;20267;-69
2023/12/16 01:49:58;;;;;;;18.30;6.93;;;9.30;1.00;;;;;;5095333;28;20845;-69
2023/12/16 01:52:24;;;;;;;15.30;6.77;;;9.30;1.00;;;;;;5095442;28;20174;-68
2023/12/16 01:54:50;;;;;;;13.47;6.47;;;9.30;1.00;;;;;;5095235;28;20233;-69
2023/12/16 01:57:16;;;;;;;14.07;6.63;;;9.30;1.00;;;;;;5095486;28;20179;-68
2023/12/16 01:59:42;;;;;;;14.93;6.70;;;9.30;1.00;;;;;;5095342;28;20164;-68
2023/12/16 02:02:09;;;;;;;12.50;5.93;;;9.30;1.00;;;;;;5076592;28;20221;-68
2023/12/16 02:04:34;;;;;;;17.47;7.13;;;9.20;1.00;;;;;;5095262;28;20183;-69
2023/12/16 02:07:00;;;;;;;12.60;7.00;;;9.10;1.00;;;;;;5095262;28;20251;-68
2023/12/16 02:09:26;;;;;;;16.17;6.70;;;9.20;1.00;;;;;;5095083;28;20214;-68
2023/12/16 02:11:52;;;;;;;18.73;7.37;;;9.10;1.00;;;;;;5076882;28;20175;-69
2023/12/16 02:14:18;;;;;;;11.97;6.60;;;9.10;1.00;;;;;;5094645;28;20532;-68
2023/12/16 02:16:44;;;;;;;16.27;6.70;;;9.00;1.00;;;;;;5094569;28;20690;-69
2023/12/16 02:19:12;;;;;;;13.93;6.83;;;9.00;1.00;;;;;;5094934;28;20234;-68
2023/12/16 02:21:37;;;;;;;18.40;7.13;;;9.00;1.00;;;;;;5095015;28;20175;-69
2023/12/16 02:24:03;;;;;;;17.80;6.60;;;9.10;1.00;;;;;;5094796;28;20176;-69
2023/12/16 02:26:29;;;;;;;11.43;6.07;;;9.00;1.00;;;;;;5094521;28;20693;-69
2023/12/16 02:28:54;;;;;;;14.27;6.67;;;9.00;1.00;;;;;;5076417;28;20555;-69
2023/12/16 02:31:20;;;;;;;16.80;6.60;;;8.90;1.00;;;;;;5094417;28;20172;-70
2023/12/16 02:33:45;;;;;;;16.20;6.70;;;8.80;1.00;;;;;;5076520;28;20698;-69
2023/12/16 02:36:11;;;;;;;14.97;6.30;;;8.90;1.00;;;;;;5094702;28;20246;-69
2023/12/16 02:38:36;;;;;;;14.40;6.40;;;8.90;1.00;;;;;;5094554;28;20176;-70
2023/12/16 02:41:02;;;;;;;16.23;6.93;;;8.90;1.00;;;;;;5094504;28;20179;-69
2023/12/16 02:43:28;;;;;;;20.50;7.83;;;8.90;1.00;;;;;;5094387;28;20176;-69
2023/12/16 02:45:53;;;;;;;18.53;6.60;;;9.00;1.00;;;;;;5094151;28;20164;-69
2023/12/16 02:48:19;;;;;;;15.13;6.90;;;8.90;1.00;;;;;;5094380;28;20301;-69
2023/12/16 02:50:44;;;;;;;14.43;6.47;;;8.80;1.00;;;;;;5094334;28;20496;-70
2023/12/16 02:53:10;;;;;;;16.27;6.40;;;8.60;1.00;;;;;;5094386;28;20221;-69
2023/12/16 02:55:35;;;;;;;12.47;7.10;;;8.60;6.40;;;;;;5094301;28;20199;-69
2023/12/16 02:58:01;;;;;;;15.80;6.87;;;8.50;8.80;;;;;;5094244;28;20179;-69
2023/12/16 03:00:27;;;;;;;15.03;6.43;;;8.50;9.70;;;;;;5093913;28;20172;-69
2023/12/16 03:02:52;;;;;;;15.20;6.57;;;8.50;12.50;;;;;;5093868;28;20168;-69
2023/12/16 03:05:18;;;;;;;16.30;6.60;;;8.50;13.60;;;;;;5094265;28;20251;-68
2023/12/16 03:07:43;;;;;;;18.57;6.60;;;8.50;13.30;;;;;;5094191;28;20194;-70
2023/12/16 03:10:09;;;;;;;19.83;6.70;;;8.50;12.80;;;;;;5093915;28;20286;-69
2023/12/16 03:12:34;;;;;;;16.40;6.83;;;8.50;13.10;;;;;;5093904;28;20168;-69
2023/12/16 03:15:00;;;;;;;18.93;6.27;;;8.40;12.90;;;;;;5093561;28;20171;-69
2023/12/16 03:17:26;;;;;;;17.17;6.23;;;8.40;15.60;;;;;;5093865;28;20196;-69
2023/12/16 03:19:51;;;;;;;16.63;6.60;;;8.30;18.90;;;;;;5093825;28;20168;-69
2023/12/16 03:22:17;;;;;;;18.33;6.50;;;8.30;21.50;;;;;;5093804;28;20698;-69
2023/12/16 03:24:43;;;;;;;18.50;6.60;;;8.30;22.10;;;;;;5093776;28;20172;-70
2023/12/16 03:27:08;;;;;;;22.50;7.00;;;8.30;21.80;;;;;;5092587;28;20219;-68
2023/12/16 03:29:34;;;;;;;15.87;6.23;;;8.20;23.80;;;;;;5093337;28;20248;-69
2023/12/16 03:31:59;;;;;;;15.10;5.80;;;8.10;25.60;;;;;;5075334;28;20206;-69
2023/12/16 03:34:26;;;;;;;10.77;6.00;;;8.10;29.80;;;;;;5093551;28;20292;-68
2023/12/16 03:36:51;;;;;;;11.67;5.83;;;8.00;36.00;;;;;;5093825;28;20202;-69
2023/12/16 03:39:17;;;;;;;17.07;5.70;;;7.90;41.80;;;;;;5093544;28;20179;-69
2023/12/16 03:41:42;;;;;;;13.20;6.13;;;8.00;43.50;;;;;;5093692;28;20182;-69
2023/12/16 03:44:08;;;;;;;16.63;6.50;;;8.00;42.40;;;;;;5092959;28;20700;-68
2023/12/16 03:46:34;;;;;;;15.67;6.40;;;7.90;44.10;;;;;;5093458;28;20654;-69
2023/12/16 03:48:59;;;;;;;16.47;6.13;;;7.80;46.40;;;;;;5093302;28;20678;-69
2023/12/16 03:51:25;;;;;;;16.80;6.03;;;7.80;49.30;;;;;;5093269;28;20167;-69
2023/12/16 03:53:51;;;;;;;13.13;5.70;;;7.80;51.80;;;;;;5093213;28;20525;-69
2023/12/16 03:56:16;;;;;;;14.63;5.93;;;7.80;51.60;;;;;;5093561;28;20171;-69
2023/12/16 03:58:42;;;;;;;13.47;5.83;;;7.80;50.20;;;;;;5093084;28;20196;-69
2023/12/16 04:01:13;;;;;;;10.20;5.60;;;7.70;50.60;;;;;;5093121;28;20603;-69
2023/12/16 04:03:40;;;;;;;13.53;5.57;;;7.80;52.20;;;;;;5093158;28;20168;-68
2023/12/16 04:06:11;;;;;;;14.60;5.67;;;7.80;50.90;;;;;;5093163;28;20183;-69
2023/12/16 04:08:36;;;;;;;13.73;6.20;;;7.90;50.60;;;;;;5093405;28;20225;-68
2023/12/16 04:11:02;;;;;;;17.97;5.67;;;7.80;45.20;;;;;;5093286;28;20172;-69
2023/12/16 04:13:27;;;;;;;13.60;6.03;;;7.80;46.00;;;;;;5092633;28;20171;-69
2023/12/16 04:15:53;;;;;;;14.70;4.80;;;7.80;46.60;;;;;;5092778;28;20183;-69
2023/12/16 04:18:19;;;;;;;17.83;5.23;;;7.70;48.90;;;;;;5092977;28;20265;-68
2023/12/16 04:20:44;;;;;;;12.10;5.33;;;7.70;49.50;;;;;;5092944;28;20662;-68
2023/12/16 04:23:10;;;;;;;19.90;5.43;;;7.70;50.80;;;;;;5092798;28;20167;-69
2023/12/16 04:25:35;;;;;;;12.37;5.10;;;7.70;50.00;;;;;;5093305;28;20258;-69
2023/12/16 04:28:02;;;;;;;18.90;5.53;;;7.70;48.30;;;;;;5092224;28;20223;-69
2023/12/16 04:30:28;;;;;;;18.80;5.17;;;7.70;48.10;;;;;;5074949;28;20176;-68
2023/12/16 04:32:53;;;;;;;13.77;5.37;;;7.60;47.40;;;;;;5093078;28;20175;-69
2023/12/16 04:35:19;;;;;;;14.47;5.17;;;7.70;46.80;;;;;;5093105;28;20262;-69
2023/12/16 04:37:44;;;;;;;14.40;5.40;;;7.70;45.80;;;;;;5093547;28;20194;-69
2023/12/16 04:40:10;;;;;;;13.77;4.83;;;7.70;47.20;;;;;;5096744;28;20172;-69
2023/12/16 04:42:36;;;;;;;15.30;4.43;;;7.60;44.80;;;;;;5096152;28;20167;-69
2023/12/16 04:45:01;;;;;;;11.00;4.60;;;7.60;46.20;;;;;;5096744;28;20224;-68
2023/12/16 04:47:27;;;;;;;14.73;5.27;;;7.50;46.20;;;;;;5096486;28;20218;-69
2023/12/16 04:49:52;;;;;;;14.47;5.13;;;7.50;46.70;;;;;;5096313;28;20341;-69
2023/12/16 04:52:18;;;;;;;10.13;4.47;;;7.50;48.10;;;;;;5096402;28;20210;-68
2023/12/16 04:54:44;;;;;;;16.67;4.70;;;7.50;48.90;;;;;;5096344;28;20223;-69
2023/12/16 04:57:10;;;;;;;10.77;4.60;;;7.50;52.20;;;;;;5096018;28;20174;-68
2023/12/16 04:59:36;;;;;;;15.37;5.17;;;7.50;49.50;;;;;;5096138;28;20167;-69
2023/12/16 05:02:02;;;;;;;14.50;5.30;;;7.60;46.90;;;;;;5096336;28;20171;-69
2023/12/16 05:04:27;;;;;;;16.60;5.07;;;7.70;47.00;;;;;;5096215;28;20184;-69
2023/12/16 05:06:53;;;;;;;11.23;4.57;;;7.80;41.70;;;;;;5095986;28;20187;-68
2023/12/16 05:09:19;;;;;;;16.23;4.57;;;7.80;34.80;;;;;;5095968;28;20207;-68
2023/12/16 05:11:44;;;;;;;15.67;4.80;;;7.80;31.70;;;;;;5095468;28;20164;-69
2023/12/16 05:14:10;;;;;;;13.83;5.20;;;7.80;28.80;;;;;;5095970;28;20176;-68
2023/12/16 05:16:36;;;;;;;13.57;4.43;;;7.90;26.30;;;;;;5096149;28;20572;-69
2023/12/16 05:19:03;;;;;;;16.17;5.00;;;7.90;24.20;;;;;;5095891;28;20195;-68
2023/12/16 05:21:29;;;;;;;12.43;4.47;;;8.00;18.50;;;;;;5095793;28;20199;-68
2023/12/16 05:23:55;;;;;;;12.77;3.97;;;8.00;16.00;;;;;;5095728;28;20179;-68
2023/12/16 05:26:21;;;;;;;15.73;4.53;;;8.10;10.00;;;;;;5094897;28;20277;-68
2023/12/16 05:28:47;;;;;;;13.63;4.27;;;8.10;10.70;;;;;;5095536;28;20298;-68
2023/12/16 05:31:13;;;;;;;15.90;4.87;;;8.10;2.90;;;;;;5095984;28;20275;-68
2023/12/16 05:33:38;;;;;;;10.87;4.80;;;8.10;1.00;;;;;;5077531;28;20706;-68
2023/12/16 05:36:05;;;;;;;12.67;4.07;;;8.20;1.00;;;;;;5095629;28;20206;-68
2023/12/16 05:38:30;;;;;;;15.17;3.40;;;8.20;1.00;;;;;;5095471;28;20168;-69
2023/12/16 05:40:56;;;;;;;11.13;3.90;;;8.30;1.00;;;;;;5095278;28;20172;-69
2023/12/16 05:43:21;;;;;;;13.57;3.80;;;8.40;1.00;;;;;;5095031;28;20233;-69
2023/12/16 05:45:47;;;;;;;18.63;3.97;;;8.40;1.00;;;;;;5095398;28;20179;-68
2023/12/16 05:48:12;;;;;;;13.13;4.07;;;8.40;1.00;;;;;;5095284;28;20175;-69
2023/12/16 05:50:38;;;;;;;14.03;4.20;;;8.40;1.00;;;;;;5094461;28;20172;-68
2023/12/16 05:53:06;;;;;;;16.87;4.10;;;8.40;1.00;;;;;;5076799;28;20167;-68
2023/12/16 05:55:33;;;;;;;17.47;3.93;;;8.30;1.00;;;;;;5094980;28;20253;-69
2023/12/16 05:57:58;;;;;;;9.50;3.80;;;8.30;1.00;;;;;;5095114;28;20230;-68
2023/12/16 06:00:24;;;;;;;15.63;4.13;;;8.30;1.00;;;;;;5094828;28;20172;-68
2023/12/16 06:02:49;;;;;;;14.27;4.00;;;8.30;1.00;;;;;;5095176;28;20182;-69
2023/12/16 06:05:15;;;;;;;12.27;4.10;;;8.30;1.00;;;;;;5094715;28;20168;-70
2023/12/16 06:07:41;;;;;;;13.20;4.13;;;8.20;1.00;;;;;;5094866;28;20244;-68
2023/12/16 06:10:07;;;;;;;15.53;4.53;;;8.30;1.00;;;;;;5094409;28;20211;-68
2023/12/16 06:12:32;;;;;;;10.70;3.63;;;8.30;1.00;;;;;;5094736;28;20226;-68
2023/12/16 06:14:58;;;;;;;18.90;3.93;;;8.30;1.00;;;;;;5094440;28;20670;-68
2023/12/16 06:17:24;;;;;;;15.67;4.10;;;8.30;1.00;;;;;;5095072;28;20279;-69
2023/12/16 06:19:49;;;;;;;9.00;3.47;;;8.30;1.00;;;;;;5094573;28;20656;-69
2023/12/16 06:22:15;;;;;;;19.53;3.77;;;8.30;1.00;;;;;;5094726;28;20244;-69
2023/12/16 06:24:40;;;;;;;12.17;4.43;;;8.20;1.00;;;;;;5093863;28;20267;-69
2023/12/16 06:27:06;;;;;;;11.37;3.57;;;8.30;1.00;;;;;;5094430;28;20219;-69
2023/12/16 06:29:31;;;;;;;10.57;3.63;;;8.20;1.00;;;;;;5094406;28;20569;-69
2023/12/16 06:31:58;;;;;;;11.03;3.87;;;8.20;1.00;;;;;;5094429;28;20180;-69
2023/12/16 06:34:23;;;;;;;19.87;4.70;;;8.20;1.00;;;;;;5094504;28;20183;-69
2023/12/16 06:36:49;;;;;;;11.93;3.60;;;8.20;1.00;;;;;;5094312;28;20639;-69
2023/12/16 06:39:15;;;;;;;13.63;3.57;;;8.20;1.00;;;;;;5093699;28;20176;-69
2023/12/16 06:41:40;;;;;;;8.10;3.13;;;8.20;1.00;;;;;;5094106;28;20641;-68
2023/12/16 06:44:06;;;;;;;12.97;4.13;;;8.30;1.00;;;;;;5094011;28;20187;-69
2023/12/16 06:46:32;;;;;;;10.37;3.80;;;8.40;1.00;;;;;;5094335;28;20229;-69
2023/12/16 06:48:58;;;;;;;12.37;3.50;;;8.40;1.00;;;;;;5094077;28;20249;-69
2023/12/16 06:51:23;;;;;;;16.03;4.07;;;8.50;1.00;;;;;;5093709;28;20172;-69
2023/12/16 06:53:49;;;;;;;11.80;3.83;;;8.50;1.00;;;;;;5093988;28;20843;-69
2023/12/16 06:56:14;;;;;;;17.47;3.90;;;8.50;1.00;;;;;;5093593;28;20604;-69
2023/12/16 06:58:41;;;;;;;13.67;3.90;;;8.60;1.00;;;;;;5094031;28;20175;-68
2023/12/16 07:01:11;;;;;;;13.03;3.60;;;8.70;1.00;;;;;;5093622;28;20167;-70
2023/12/16 07:03:37;;;;;;;11.97;3.90;;;8.70;1.00;;;;;;5093529;28;20615;-69
2023/12/16 07:06:03;;;;;;;12.77;3.80;;;8.70;1.00;;;;;;5093206;28;20199;-69
2023/12/16 07:08:28;;;;;;;10.40;3.60;;;8.80;1.00;;;;;;5093481;28;20191;-69
2023/12/16 07:10:54;;;;;;;9.50;3.47;;;8.80;1.00;;;;;;5093503;28;20662;-69
2023/12/16 07:13:19;;;;;;;11.00;3.43;;;8.80;1.00;;;;;;5093736;28;20220;-69
2023/12/16 07:15:45;;;;;;;12.60;3.60;;;8.90;1.00;;;;;;5093473;28;20172;-69
2023/12/16 07:18:11;;;;;;;9.70;3.70;;;8.80;1.00;;;;;;5093704;28;20191;-69
2023/12/16 07:20:36;;;;;;;11.80;3.97;;;8.80;1.00;;;;;;5092024;28;20216;-69
2023/12/16 07:23:04;;;;;;;20.60;4.30;;;8.80;1.00;;;;;;5091923;28;20168;-69
2023/12/16 07:25:30;;;;;;;8.57;3.70;;;8.80;1.00;;;;;;5093110;28;20164;-69
2023/12/16 07:27:56;;;;;;;11.47;3.43;;;8.90;1.00;;;;;;5093010;28;20714;-68
2023/12/16 07:30:21;;;;;;;13.13;3.50;;;8.80;1.00;;;;;;5093486;28;20207;-69
2023/12/16 07:32:48;;;;;;;10.23;3.77;;;8.80;1.00;;;;;;5093601;28;20192;-69
2023/12/16 07:35:15;;;;;;;13.77;3.40;;;8.70;1.00;;;;;;5093077;28;20268;-69
2023/12/16 07:37:41;;;;;;;15.53;3.87;;;8.70;1.00;;;;;;5093029;28;20217;-68
2023/12/16 07:40:10;;;;;;;10.20;4.03;;;8.70;1.00;;;;;;5093330;28;20186;-69
2023/12/16 07:42:36;;;;;;;15.37;4.20;;;8.70;1.00;;;;;;5093025;28;20176;-69
2023/12/16 07:45:04;;;;;;;13.37;3.90;;;8.70;99.90;;;;;;5093471;28;20685;-69
2023/12/16 07:47:31;;;;;;;13.23;4.10;;;8.70;99.90;;;;;;5093506;28;20221;-69
2023/12/16 07:49:56;;;;;;;10.07;3.60;;;8.70;99.90;;;;;;5092168;28;20674;-69
2023/12/16 07:52:22;;;;;;;13.63;4.13;;;8.70;99.90;;;;;;5092911;28;20225;-69
2023/12/16 07:54:48;;;;;;;18.33;4.37;;;8.70;99.90;;;;;;5092822;28;20611;-69
2023/12/16 07:57:13;;;;;;;13.70;4.23;;;8.70;99.90;;;;;;5092984;28;20172;-69
2023/12/16 07:59:42;;;;;;;12.00;4.00;;;8.70;99.90;;;;;;5092857;28;20253;-68
2023/12/16 08:02:08;;;;;;;14.60;4.20;;;8.70;99.90;;;;;;5092728;28;20175;-69
2023/12/16 08:04:35;;;;;;;11.50;3.87;;;8.70;99.90;;;;;;5092568;28;20171;-69
2023/12/16 08:07:00;;;;;;;10.90;4.10;;;8.80;99.90;;;;;;5092982;28;20183;-70
2023/12/16 08:09:26;;;;;;;15.83;4.20;;;8.80;99.90;;;;;;5092753;28;20221;-69
2023/12/16 08:11:57;;;;;;;12.70;3.97;;;8.90;99.90;;;;;;5092936;28;20207;-69
2023/12/16 08:14:23;;;;;;;13.83;4.20;;;8.90;99.90;;;;;;5096968;28;20179;-70
2023/12/16 08:16:49;;;;;;;15.13;4.47;;;9.00;99.90;;;;;;5096613;28;20175;-69
2023/12/16 08:19:15;;;;;;;8.87;4.10;;;9.00;99.90;;;;;;5096749;28;20196;-69
2023/12/16 08:21:40;;;;;;;14.03;4.27;;;9.00;99.90;;;;;;5096724;28;20175;-69
2023/12/16 08:24:06;;;;;;;12.60;4.50;;;9.10;99.90;;;;;;5096982;28;20164;-70
2023/12/16 08:26:31;;;;;;;11.03;4.33;;;9.10;99.90;;;;;;5096454;28;20280;-69
2023/12/16 08:28:57;;;;;;;10.47;4.20;;;9.10;99.90;;;;;;5096889;28;20215;-69
2023/12/16 08:31:23;;;;;;;14.13;3.90;;;9.20;99.90;;;;;;5096648;28;20172;-70
2023/12/16 08:33:48;;;;;;;12.90;4.27;;;9.30;99.90;;;;;;5096175;28;20172;-70
2023/12/16 08:36:14;;;;;;;15.47;4.37;;;9.30;99.90;;;;;;5096468;28;20740;-69
2023/12/16 08:38:39;;;;;;;14.27;3.83;;;9.30;99.90;;;;;;5096043;28;20164;-69
2023/12/16 08:41:07;;;;;;;12.93;4.50;;;9.40;99.90;;;;;;5095653;28;20168;-70
2023/12/16 08:43:34;;;;;;;10.30;4.00;;;9.40;99.90;;;;;;5096275;28;20266;-69
2023/12/16 08:46:00;;;;;;;12.00;4.33;;;9.50;99.90;;;;;;5096644;28;20172;-68
2023/12/16 08:48:26;;;;;;;10.30;4.07;;;9.50;99.90;;;;;;5095510;28;20168;-67
2023/12/16 08:50:52;;;;;;;13.57;4.77;;;9.40;99.90;;;;;;5096132;28;20203;-70
2023/12/16 08:53:18;;;;;;;15.43;4.53;;;9.40;99.90;;;;;;5096392;28;20168;-70
2023/12/16 08:55:43;;;;;;;15.83;4.40;;;9.40;99.90;;;;;;5095570;28;20176;-71
2023/12/16 08:58:09;;;;;;;14.17;4.80;;;9.50;99.90;;;;;;5096360;28;20635;-69
2023/12/16 09:00:35;;;;;;;13.47;4.30;;;9.50;99.90;;;;;;5096057;28;20627;-69
2023/12/16 09:03:00;;;;;;;11.77;4.53;;;9.50;99.90;;;;;;5095962;28;20172;-69
2023/12/16 09:05:28;;;;;;;16.90;5.03;;;9.60;99.90;;;;;;5096257;28;20207;-70
2023/12/16 09:07:53;;;;;;;12.20;4.57;;;9.60;99.90;;;;;;5094853;28;20580;-70
2023/12/16 09:10:19;;;;;;;13.87;4.70;;;9.70;99.90;;;;;;5095367;28;20250;-70
2023/12/16 09:12:45;;;;;;;15.63;4.80;;;9.70;99.90;;;;;;5096127;28;20179;-70
2023/12/16 09:15:10;;;;;;;14.07;4.37;;;9.70;99.90;;;;;;5095995;28;20175;-70
2023/12/16 09:17:36;;;;;;;16.17;4.93;;;9.70;99.90;;;;;;5096344;28;20187;-69
2023/12/16 09:20:02;;;;;;;15.93;4.67;;;9.80;99.90;;;;;;5095650;28;20176;-68
2023/12/16 09:22:28;;;;;;;12.93;4.83;;;9.90;99.90;;;;;;5095806;28;20619;-70
2023/12/16 09:24:53;;;;;;;14.33;4.80;;;9.90;99.90;;;;;;5094438;28;20183;-70
2023/12/16 09:27:19;;;;;;;12.03;4.27;;;9.90;99.90;;;;;;5095324;28;20219;-70
2023/12/16 09:29:44;;;;;;;11.00;4.97;;;10.00;99.90;;;;;;5095328;28;20237;-69
2023/12/16 09:32:10;;;;;;;13.60;4.80;;;10.00;99.90;;;;;;5095116;28;20578;-69
2023/12/16 09:34:35;;;;;;;13.43;5.43;;;10.00;99.90;;;;;;5095680;28;20569;-69
2023/12/16 09:37:01;;;;;;;16.57;4.70;;;10.00;99.90;;;;;;5095482;28;20164;-70
2023/12/16 09:39:26;;;;;;;16.63;4.60;;;10.00;99.90;;;;;;5095506;28;20199;-70
2023/12/16 09:41:55;;;;;;;15.33;4.60;;;10.20;99.90;;;;;;5095213;28;20168;-70
2023/12/16 09:44:24;;;;;;;11.83;4.87;;;10.20;99.90;;;;;;5095225;28;20172;-68
2023/12/16 09:46:50;;;;;;;10.17;4.67;;;10.20;99.90;;;;;;5094547;28;20160;-69
2023/12/16 09:49:15;;;;;;;8.90;4.60;;;10.20;99.90;;;;;;5095340;28;20747;-69
2023/12/16 09:51:45;;;;;;;12.97;4.77;;;10.30;99.90;;;;;;5095211;28;20164;-70
2023/12/16 09:54:10;;;;;;;14.23;5.60;;;10.40;99.90;;;;;;5094948;28;20320;-70
2023/12/16 09:56:39;;;;;;;16.13;4.97;;;10.30;99.90;;;;;;5094505;28;20259;-70
2023/12/16 09:59:06;;;;;;;14.20;5.10;;;10.20;99.90;;;;;;5094875;28;20180;-70
2023/12/16 10:01:32;;;;;;;14.77;4.53;;;10.30;99.90;;;;;;5076354;28;20180;-70
2023/12/16 10:03:58;;;;;;;15.10;4.67;;;10.30;99.90;;;;;;5094736;28;20190;-69
2023/12/16 10:06:24;;;;;;;18.30;5.43;;;10.30;99.90;;;;;;5095013;28;20182;-70
2023/12/16 10:08:50;;;;;;;15.53;5.43;;;10.40;99.90;;;;;;5094520;28;20559;-69
2023/12/16 10:11:16;;;;;;;16.77;4.97;;;10.40;99.90;;;;;;5094925;28;20190;-70
2023/12/16 10:13:54;;;;;;;12.83;5.13;;;10.20;99.90;;;;;;5094546;28;20230;-70
2023/12/16 10:16:24;;;;;;;15.00;5.33;;;10.20;99.90;;;;;;5094495;28;20170;-69
2023/12/16 10:18:55;;;;;;;19.30;5.30;;;10.20;99.90;;;;;;5093837;28;20282;-69
2023/12/16 10:21:24;;;;;;;18.97;5.50;;;10.30;99.90;;;;;;5094157;28;20259;-69
2023/12/16 10:23:50;;;;;;;12.63;5.07;;;10.40;99.90;;;;;;5094308;28;20229;-68
2023/12/16 10:26:17;;;;;;;16.53;5.30;;;10.40;99.90;;;;;;5093923;28;20207;-70
2023/12/16 10:28:46;;;;;;;12.67;5.33;;;10.40;99.90;;;;;;5094523;28;20761;-69
2023/12/16 10:31:13;;;;;;;17.03;5.67;;;10.40;99.90;;;;;;5093967;28;20167;-70
2023/12/16 10:33:38;;;;;;;15.67;5.33;;;10.40;99.90;;;;;;5094091;28;20160;-71
2023/12/16 10:36:04;;;;;;;12.37;4.80;;;10.40;99.90;;;;;;5093641;28;20168;-70
2023/12/16 10:38:30;;;;;;;13.07;5.37;;;10.40;99.90;;;;;;5093801;28;20225;-70
2023/12/16 10:40:55;;;;;;;18.30;5.30;;;10.50;99.90;;;;;;5094194;28;20213;-71
2023/12/16 10:43:21;;;;;;;13.63;5.00;;;10.50;99.90;;;;;;5093414;28;20524;-70
2023/12/16 10:45:49;;;;;;;11.27;5.17;;;10.70;99.90;;;;;;5093785;28;20241;-71
2023/12/16 10:48:17;;;;;;;15.63;5.27;;;10.60;99.90;;;;;;5094074;28;20229;-71
2023/12/16 10:50:45;;;;;;;15.87;5.00;;;10.60;99.90;;;;;;5093911;28;20242;-71
2023/12/16 10:53:19;;;;;;;13.13;5.43;;;10.50;99.90;;;;;;5093828;28;20176;-70
2023/12/16 10:55:50;;;;;;;17.30;5.50;;;10.60;99.90;;;;;;5093203;28;20168;-70
2023/12/16 10:58:26;;;;;;;16.80;5.27;;;10.70;99.90;;;;;;5093823;28;20171;-70
2023/12/16 11:00:52;;;;;;;13.63;5.73;;;10.80;99.90;;;;;;5093545;28;20264;-72
2023/12/16 11:03:36;;;;;;;13.77;5.80;;;10.90;99.90;;;;;;5093836;28;20180;-69
2023/12/16 11:06:15;;;;;;;13.60;5.30;;;11.00;99.90;;;;;;5076939;28;20160;-69
2023/12/16 11:08:41;;;;;;;14.67;5.20;;;10.90;99.90;;;;;;5093745;28;20191;-69
2023/12/16 11:11:07;;;;;;;17.83;5.50;;;10.90;99.90;;;;;;5093148;28;20163;-70
2023/12/16 11:13:34;;;;;;;13.67;5.70;;;10.90;99.90;;;;;;5092566;28;20172;-69
2023/12/16 11:16:11;;;;;;;17.80;5.47;;;10.90;99.90;;;;;;5092948;28;20602;-71
2023/12/16 11:18:40;;;;;;;19.80;5.30;;;11.00;99.90;;;;;;5093279;28;20219;-70
2023/12/16 11:21:12;;;;;;;15.40;5.20;;;11.00;99.90;;;;;;5093148;28;20172;-70
2023/12/16 11:23:45;;;;;;;14.37;5.47;;;10.90;99.90;;;;;;5093739;28;20213;-70
2023/12/16 11:26:11;;;;;;;16.43;6.27;;;10.90;99.90;;;;;;5075293;28;20156;-71
2023/12/16 11:28:37;;;;;;;17.40;5.43;;;10.90;99.90;;;;;;5092921;28;20643;-71
2023/12/16 11:31:03;;;;;;;14.67;5.57;;;10.90;99.90;;;;;;5092174;28;20203;-69
2023/12/16 11:33:48;;;;;;;21.07;6.57;;;10.90;99.90;;;;;;5093002;28;20168;-70
2023/12/16 11:36:14;;;;;;;17.93;5.93;;;11.00;99.90;;;;;;5092604;28;20172;-70
2023/12/16 11:38:44;;;;;;;14.63;5.97;;;11.10;99.90;;;;;;5092987;28;20191;-71
2023/12/16 11:41:11;;;;;;;17.37;5.90;;;11.10;99.90;;;;;;5092979;28;20237;-71
2023/12/16 11:43:47;;;;;;;17.40;5.80;;;11.10;99.90;;;;;;5092660;28;20172;-71
2023/12/16 11:46:48;;;;;;;16.27;6.07;;;11.20;99.90;;;;;;5093016;28;20323;-72
2023/12/16 11:49:15;;;;;;;17.83;6.60;;;11.10;99.90;;;;;;5009899;28;20676;-70
2023/12/16 11:51:41;;;;;;;15.60;5.80;;;11.10;99.90;;;;;;5011292;28;20213;-70
2023/12/16 11:54:10;;;;;;;15.37;6.47;;;10.90;99.90;;;;;;5010762;28;20285;-69
2023/12/16 11:56:36;;;;;;;18.10;6.47;;;10.90;99.90;;;;;;5010131;28;20210;-71
2023/12/16 11:59:03;;;;;;;15.43;6.07;;;10.90;99.90;;;;;;5010237;28;20182;-71
2023/12/16 12:01:31;;;;;;;13.20;6.27;;;11.00;99.90;;;;;;5011065;28;20236;-70
2023/12/16 12:03:57;;;;;;;19.13;6.40;;;11.00;99.90;;;;;;5010783;28;20182;-69
2023/12/16 12:06:24;;;;;;;26.50;7.33;;;11.10;99.90;;;;;;5010637;28;20179;-70
2023/12/16 12:08:49;;;;;;;19.50;7.57;;;11.20;99.90;;;;;;5010443;28;20230;-71
2023/12/16 12:11:16;;;;;;;19.17;7.13;;;11.30;99.90;;;;;;5010085;28;20197;-71
2023/12/16 12:13:45;;;;;;;22.07;7.17;;;11.20;99.90;;;;;;5010925;28;20179;-71
2023/12/16 12:16:12;;;;;;;13.60;6.87;;;11.30;99.90;;;;;;5010097;28;20329;-70
2023/12/16 12:18:40;;;;;;;14.23;7.67;;;11.40;99.90;;;;;;5010686;28;20206;-70
2023/12/16 12:21:07;;;;;;;15.83;7.37;;;11.30;99.90;;;;;;5010153;28;20170;-70
2023/12/16 12:23:33;;;;;;;19.77;7.60;;;11.20;99.90;;;;;;5064313;28;20281;-71
2023/12/16 12:26:00;;;;;;;19.97;7.80;;;11.10;99.90;;;;;;5091913;28;20263;-70
2023/12/16 12:28:26;;;;;;;19.57;7.37;;;11.10;99.90;;;;;;5092524;28;20225;-70
2023/12/16 12:31:06;;;;;;;17.20;7.20;;;11.20;99.90;;;;;;5093038;28;20187;-70
2023/12/16 12:33:33;;;;;;;24.20;8.53;;;11.00;99.90;;;;;;5091910;28;20647;-70
2023/12/16 12:35:58;;;;;;;18.57;8.77;;;11.00;99.90;;;;;;5092316;28;20241;-70
2023/12/16 12:38:25;;;;;;;18.80;9.00;;;11.00;99.90;;;;;;5092635;28;20626;-70
2023/12/16 12:41:08;;;;;;;21.30;9.33;;;11.10;99.90;;;;;;5091945;28;20167;-71
2023/12/16 12:43:35;;;;;;;23.83;10.27;;;11.00;99.90;;;;;;5074151;28;20525;-70